MMPB

Details ICAO MMPB (PBC)
Name Hermanos Serdan Intl
Region Mexico
Timezone America/Mexico_City (UTC-5.0)
Plans Departing 63
Arriving 48
Stats Elevation 7,361 ft / 2,244 m (AMSL)
Location 19.158144° -98.371446°
Runways 1
Magnetic Variation 4.313° E
Sunrise 2018-05-25 11:57:26 UTC / 2018-05-25 06:57:26 Local
Sunset 2018-05-26 01:06:20 UTC / 2018-05-25 20:06:20 Local
Advertisement - Login to hide

Runways

ID Width Length Bearing (true) Bearing (mag) Surface Threshold Offset Overrun Length
17 148 ft / 45 m 11,933 ft / 3,637 m 178.06° 173.75° Asphalt 0 ft / 0 m 185 ft / 56 m
35 148 ft / 45 m 11,933 ft / 3,637 m 358.06° 353.75° Asphalt 0 ft / 0 m 232 ft / 71 m

Map

Weather


0- 5 10 15 20 25 30 35+ Temperature / ° C

Clouds and Precipitation
Forecast for 2018-05-25 18:00 UTC. Updated 4 hours ago

Ground ~20,000 ft ~40,000 ft Winds

METAR

MMPB 251954Z 33011KT 12SM SKC 28/M02 A3023 RMK CU

TAF

Not found

Frequencies

Approach 118.20 MHz PUEBLA APP/TWR
Warning: Do not use this data for real-world aviation or navigation. No guarantee of current accuracy is given.